sensor_id;sensor_type;location;lat;lon;timestamp;P1;durP1;ratioP1;P2;durP2;ratioP2
45114;SDS011;30877;43.706;10.780;2022-07-25T00:00:37;5.93;;;3.85;;
45114;SDS011;30877;43.706;10.780;2022-07-25T00:03:05;6.68;;;3.78;;
45114;SDS011;30877;43.706;10.780;2022-07-25T00:05:37;5.78;;;3.70;;
45114;SDS011;30877;43.706;10.780;2022-07-25T00:08:05;5.45;;;4.00;;
45114;SDS011;30877;43.706;10.780;2022-07-25T00:10:34;5.13;;;3.42;;
45114;SDS011;30877;43.706;10.780;2022-07-25T00:13:04;5.40;;;3.90;;
45114;SDS011;30877;43.706;10.780;2022-07-25T00:15:32;5.53;;;3.80;;
45114;SDS011;30877;43.706;10.780;2022-07-25T00:18:01;4.40;;;3.75;;
45114;SDS011;30877;43.706;10.780;2022-07-25T00:20:29;5.93;;;3.90;;
45114;SDS011;30877;43.706;10.780;2022-07-25T00:22:58;4.63;;;3.30;;
45114;SDS011;30877;43.706;10.780;2022-07-25T00:25:26;4.93;;;3.63;;
45114;SDS011;30877;43.706;10.780;2022-07-25T00:27:55;6.50;;;3.60;;
45114;SDS011;30877;43.706;10.780;2022-07-25T00:30:25;6.50;;;3.70;;
45114;SDS011;30877;43.706;10.780;2022-07-25T00:32:53;5.40;;;3.63;;
45114;SDS011;30877;43.706;10.780;2022-07-25T00:35:22;4.90;;;3.53;;
45114;SDS011;30877;43.706;10.780;2022-07-25T00:37:50;4.78;;;3.45;;
45114;SDS011;30877;43.706;10.780;2022-07-25T00:40:19;5.00;;;3.70;;
45114;SDS011;30877;43.706;10.780;2022-07-25T00:42:47;6.05;;;3.80;;
45114;SDS011;30877;43.706;10.780;2022-07-25T00:45:16;6.18;;;3.80;;
45114;SDS011;30877;43.706;10.780;2022-07-25T00:47:46;4.38;;;3.70;;
45114;SDS011;30877;43.706;10.780;2022-07-25T00:50:15;7.72;;;4.03;;
45114;SDS011;30877;43.706;10.780;2022-07-25T00:52:43;5.28;;;3.35;;
45114;SDS011;30877;43.706;10.780;2022-07-25T00:55:12;5.65;;;3.40;;
45114;SDS011;30877;43.706;10.780;2022-07-25T00:57:41;6.95;;;3.65;;
45114;SDS011;30877;43.706;10.780;2022-07-25T01:00:10;7.53;;;4.03;;
45114;SDS011;30877;43.706;10.780;2022-07-25T01:02:41;5.47;;;3.83;;
45114;SDS011;30877;43.706;10.780;2022-07-25T01:05:11;3.42;;;3.13;;
45114;SDS011;30877;43.706;10.780;2022-07-25T01:07:40;4.90;;;3.92;;
45114;SDS011;30877;43.706;10.780;2022-07-25T01:10:09;6.03;;;3.97;;
45114;SDS011;30877;43.706;10.780;2022-07-25T01:12:47;4.78;;;3.70;;
45114;SDS011;30877;43.706;10.780;2022-07-25T01:15:17;6.88;;;3.83;;
45114;SDS011;30877;43.706;10.780;2022-07-25T01:17:45;7.22;;;3.80;;
45114;SDS011;30877;43.706;10.780;2022-07-25T01:20:16;6.32;;;4.13;;
45114;SDS011;30877;43.706;10.780;2022-07-25T01:22:45;6.90;;;3.97;;
45114;SDS011;30877;43.706;10.780;2022-07-25T01:25:14;4.90;;;3.70;;
45114;SDS011;30877;43.706;10.780;2022-07-25T01:27:43;6.13;;;3.83;;
45114;SDS011;30877;43.706;10.780;2022-07-25T01:30:20;4.93;;;3.53;;
45114;SDS011;30877;43.706;10.780;2022-07-25T01:32:50;6.70;;;3.80;;
45114;SDS011;30877;43.706;10.780;2022-07-25T01:35:20;7.57;;;3.78;;
45114;SDS011;30877;43.706;10.780;2022-07-25T01:37:49;4.95;;;3.85;;
45114;SDS011;30877;43.706;10.780;2022-07-25T01:40:17;6.22;;;4.10;;
45114;SDS011;30877;43.706;10.780;2022-07-25T01:42:46;4.60;;;3.90;;
45114;SDS011;30877;43.706;10.780;2022-07-25T01:45:14;5.32;;;3.90;;
45114;SDS011;30877;43.706;10.780;2022-07-25T01:47:43;5.68;;;3.47;;
45114;SDS011;30877;43.706;10.780;2022-07-25T01:50:11;5.95;;;3.72;;
45114;SDS011;30877;43.706;10.780;2022-07-25T01:52:41;5.65;;;3.67;;
45114;SDS011;30877;43.706;10.780;2022-07-25T01:55:11;4.82;;;3.42;;
45114;SDS011;30877;43.706;10.780;2022-07-25T01:57:39;4.43;;;3.63;;
45114;SDS011;30877;43.706;10.780;2022-07-25T02:00:16;7.82;;;4.80;;
45114;SDS011;30877;43.706;10.780;2022-07-25T02:02:44;5.70;;;4.63;;
45114;SDS011;30877;43.706;10.780;2022-07-25T02:05:13;6.13;;;4.90;;
45114;SDS011;30877;43.706;10.780;2022-07-25T02:07:44;6.15;;;4.55;;
45114;SDS011;30877;43.706;10.780;2022-07-25T02:10:12;7.72;;;5.20;;
45114;SDS011;30877;43.706;10.780;2022-07-25T02:12:40;6.90;;;5.00;;
45114;SDS011;30877;43.706;10.780;2022-07-25T02:15:09;5.68;;;4.95;;
45114;SDS011;30877;43.706;10.780;2022-07-25T02:17:38;6.10;;;4.70;;
45114;SDS011;30877;43.706;10.780;2022-07-25T02:20:07;5.63;;;5.05;;
45114;SDS011;30877;43.706;10.780;2022-07-25T02:22:36;6.47;;;4.63;;
45114;SDS011;30877;43.706;10.780;2022-07-25T02:25:06;5.90;;;4.55;;
45114;SDS011;30877;43.706;10.780;2022-07-25T02:27:34;5.45;;;3.90;;
45114;SDS011;30877;43.706;10.780;2022-07-25T02:30:03;4.85;;;4.10;;
45114;SDS011;30877;43.706;10.780;2022-07-25T02:32:31;5.82;;;4.63;;
45114;SDS011;30877;43.706;10.780;2022-07-25T02:34:59;5.88;;;4.22;;
45114;SDS011;30877;43.706;10.780;2022-07-25T02:37:27;5.53;;;4.00;;
45114;SDS011;30877;43.706;10.780;2022-07-25T02:39:55;8.52;;;4.38;;
45114;SDS011;30877;43.706;10.780;2022-07-25T02:42:24;5.88;;;4.18;;
45114;SDS011;30877;43.706;10.780;2022-07-25T02:44:52;5.15;;;4.15;;
45114;SDS011;30877;43.706;10.780;2022-07-25T02:47:20;6.50;;;4.28;;
45114;SDS011;30877;43.706;10.780;2022-07-25T02:49:48;7.22;;;4.10;;
45114;SDS011;30877;43.706;10.780;2022-07-25T02:52:16;5.55;;;4.00;;
45114;SDS011;30877;43.706;10.780;2022-07-25T02:54:44;5.22;;;4.70;;
45114;SDS011;30877;43.706;10.780;2022-07-25T02:57:11;7.32;;;4.50;;
45114;SDS011;30877;43.706;10.780;2022-07-25T02:59:41;6.72;;;4.90;;
45114;SDS011;30877;43.706;10.780;2022-07-25T03:02:09;7.70;;;4.75;;
45114;SDS011;30877;43.706;10.780;2022-07-25T03:04:36;4.68;;;4.18;;
45114;SDS011;30877;43.706;10.780;2022-07-25T03:07:04;5.53;;;4.40;;
45114;SDS011;30877;43.706;10.780;2022-07-25T03:09:33;7.78;;;4.85;;
45114;SDS011;30877;43.706;10.780;2022-07-25T03:12:02;7.07;;;4.30;;
45114;SDS011;30877;43.706;10.780;2022-07-25T03:14:30;7.65;;;5.00;;
45114;SDS011;30877;43.706;10.780;2022-07-25T03:16:59;5.20;;;4.70;;
45114;SDS011;30877;43.706;10.780;2022-07-25T03:19:27;7.07;;;4.43;;
45114;SDS011;30877;43.706;10.780;2022-07-25T03:21:55;5.28;;;4.53;;
45114;SDS011;30877;43.706;10.780;2022-07-25T03:24:23;6.30;;;4.22;;
45114;SDS011;30877;43.706;10.780;2022-07-25T03:26:54;4.63;;;4.22;;
45114;SDS011;30877;43.706;10.780;2022-07-25T03:29:22;8.32;;;4.35;;
45114;SDS011;30877;43.706;10.780;2022-07-25T03:31:49;5.28;;;3.88;;
45114;SDS011;30877;43.706;10.780;2022-07-25T03:34:19;5.60;;;3.78;;
45114;SDS011;30877;43.706;10.780;2022-07-25T03:36:47;5.60;;;4.38;;
45114;SDS011;30877;43.706;10.780;2022-07-25T03:39:15;5.97;;;4.20;;
45114;SDS011;30877;43.706;10.780;2022-07-25T03:41:43;6.10;;;4.28;;
45114;SDS011;30877;43.706;10.780;2022-07-25T03:44:11;5.78;;;4.13;;
45114;SDS011;30877;43.706;10.780;2022-07-25T03:46:38;6.32;;;4.13;;
45114;SDS011;30877;43.706;10.780;2022-07-25T03:49:06;6.18;;;4.18;;
45114;SDS011;30877;43.706;10.780;2022-07-25T03:51:36;6.00;;;3.70;;
45114;SDS011;30877;43.706;10.780;2022-07-25T03:54:03;6.60;;;4.30;;
45114;SDS011;30877;43.706;10.780;2022-07-25T03:56:35;5.95;;;4.25;;
45114;SDS011;30877;43.706;10.780;2022-07-25T03:59:10;5.63;;;3.85;;
45114;SDS011;30877;43.706;10.780;2022-07-25T04:01:39;7.78;;;3.90;;
45114;SDS011;30877;43.706;10.780;2022-07-25T04:04:07;4.68;;;4.03;;
45114;SDS011;30877;43.706;10.780;2022-07-25T04:06:37;5.35;;;4.43;;
45114;SDS011;30877;43.706;10.780;2022-07-25T04:09:07;5.97;;;4.70;;
45114;SDS011;30877;43.706;10.780;2022-07-25T04:11:36;6.13;;;4.25;;
45114;SDS011;30877;43.706;10.780;2022-07-25T04:14:04;5.53;;;4.22;;
45114;SDS011;30877;43.706;10.780;2022-07-25T04:16:32;6.47;;;4.10;;
45114;SDS011;30877;43.706;10.780;2022-07-25T04:19:02;7.22;;;4.70;;
45114;SDS011;30877;43.706;10.780;2022-07-25T04:21:32;7.05;;;4.13;;
45114;SDS011;30877;43.706;10.780;2022-07-25T04:24:01;7.13;;;4.22;;
45114;SDS011;30877;43.706;10.780;2022-07-25T04:26:30;6.05;;;4.55;;
45114;SDS011;30877;43.706;10.780;2022-07-25T04:28:58;9.15;;;4.43;;
45114;SDS011;30877;43.706;10.780;2022-07-25T04:31:30;4.55;;;3.97;;
45114;SDS011;30877;43.706;10.780;2022-07-25T04:33:58;6.90;;;4.40;;
45114;SDS011;30877;43.706;10.780;2022-07-25T04:36:26;5.97;;;4.43;;
45114;SDS011;30877;43.706;10.780;2022-07-25T04:38:53;5.68;;;4.00;;
45114;SDS011;30877;43.706;10.780;2022-07-25T04:41:23;4.90;;;4.13;;
45114;SDS011;30877;43.706;10.780;2022-07-25T04:43:51;6.00;;;4.32;;
45114;SDS011;30877;43.706;10.780;2022-07-25T04:46:19;7.07;;;4.25;;
45114;SDS011;30877;43.706;10.780;2022-07-25T04:48:47;4.78;;;4.05;;
45114;SDS011;30877;43.706;10.780;2022-07-25T04:51:16;5.50;;;4.60;;
45114;SDS011;30877;43.706;10.780;2022-07-25T04:53:44;6.95;;;4.47;;
45114;SDS011;30877;43.706;10.780;2022-07-25T04:56:12;5.70;;;4.53;;
45114;SDS011;30877;43.706;10.780;2022-07-25T04:58:42;4.80;;;4.30;;
45114;SDS011;30877;43.706;10.780;2022-07-25T05:01:10;8.38;;;5.10;;
45114;SDS011;30877;43.706;10.780;2022-07-25T05:03:38;7.05;;;4.88;;
45114;SDS011;30877;43.706;10.780;2022-07-25T05:06:05;6.50;;;4.70;;
45114;SDS011;30877;43.706;10.780;2022-07-25T05:08:34;7.28;;;4.53;;
45114;SDS011;30877;43.706;10.780;2022-07-25T05:11:01;5.85;;;4.28;;
45114;SDS011;30877;43.706;10.780;2022-07-25T05:13:29;7.45;;;5.05;;
45114;SDS011;30877;43.706;10.780;2022-07-25T05:15:59;5.38;;;4.63;;
45114;SDS011;30877;43.706;10.780;2022-07-25T05:18:27;7.85;;;4.70;;
45114;SDS011;30877;43.706;10.780;2022-07-25T05:20:55;8.95;;;5.32;;
45114;SDS011;30877;43.706;10.780;2022-07-25T05:23:23;8.32;;;4.82;;
45114;SDS011;30877;43.706;10.780;2022-07-25T05:25:50;6.85;;;4.40;;
45114;SDS011;30877;43.706;10.780;2022-07-25T05:28:18;6.93;;;4.97;;
45114;SDS011;30877;43.706;10.780;2022-07-25T05:30:46;5.50;;;4.25;;
45114;SDS011;30877;43.706;10.780;2022-07-25T05:33:15;6.20;;;4.80;;
45114;SDS011;30877;43.706;10.780;2022-07-25T05:35:43;8.13;;;5.22;;
45114;SDS011;30877;43.706;10.780;2022-07-25T05:38:10;5.45;;;4.80;;
45114;SDS011;30877;43.706;10.780;2022-07-25T05:40:38;9.73;;;4.90;;
45114;SDS011;30877;43.706;10.780;2022-07-25T05:43:06;8.90;;;4.80;;
45114;SDS011;30877;43.706;10.780;2022-07-25T05:45:34;5.65;;;4.80;;
45114;SDS011;30877;43.706;10.780;2022-07-25T05:48:02;8.73;;;4.93;;
45114;SDS011;30877;43.706;10.780;2022-07-25T05:50:31;7.32;;;4.97;;
45114;SDS011;30877;43.706;10.780;2022-07-25T05:52:59;7.80;;;5.18;;
45114;SDS011;30877;43.706;10.780;2022-07-25T05:55:27;7.03;;;5.07;;
45114;SDS011;30877;43.706;10.780;2022-07-25T05:57:55;8.27;;;4.70;;
45114;SDS011;30877;43.706;10.780;2022-07-25T06:00:23;6.85;;;4.88;;
45114;SDS011;30877;43.706;10.780;2022-07-25T06:02:51;11.85;;;4.78;;
45114;SDS011;30877;43.706;10.780;2022-07-25T06:05:20;8.75;;;5.20;;
45114;SDS011;30877;43.706;10.780;2022-07-25T06:07:49;8.00;;;5.22;;
45114;SDS011;30877;43.706;10.780;2022-07-25T06:10:17;7.18;;;4.95;;
45114;SDS011;30877;43.706;10.780;2022-07-25T06:12:45;6.15;;;5.05;;
45114;SDS011;30877;43.706;10.780;2022-07-25T06:15:13;8.38;;;5.72;;
45114;SDS011;30877;43.706;10.780;2022-07-25T06:17:52;8.15;;;5.10;;
45114;SDS011;30877;43.706;10.780;2022-07-25T06:20:21;10.18;;;5.40;;
45114;SDS011;30877;43.706;10.780;2022-07-25T06:22:51;8.32;;;5.22;;
45114;SDS011;30877;43.706;10.780;2022-07-25T06:25:19;10.25;;;5.63;;
45114;SDS011;30877;43.706;10.780;2022-07-25T06:27:47;7.72;;;5.68;;
45114;SDS011;30877;43.706;10.780;2022-07-25T06:30:16;10.05;;;5.60;;
45114;SDS011;30877;43.706;10.780;2022-07-25T06:32:46;6.20;;;5.22;;
45114;SDS011;30877;43.706;10.780;2022-07-25T06:35:15;9.40;;;5.20;;
45114;SDS011;30877;43.706;10.780;2022-07-25T06:37:43;8.98;;;5.53;;
45114;SDS011;30877;43.706;10.780;2022-07-25T06:40:14;8.38;;;5.00;;
45114;SDS011;30877;43.706;10.780;2022-07-25T06:42:42;7.40;;;4.75;;
45114;SDS011;30877;43.706;10.780;2022-07-25T06:45:12;10.63;;;4.80;;
45114;SDS011;30877;43.706;10.780;2022-07-25T06:47:41;10.82;;;4.90;;
45114;SDS011;30877;43.706;10.780;2022-07-25T06:50:11;10.23;;;5.20;;
45114;SDS011;30877;43.706;10.780;2022-07-25T06:52:41;9.05;;;5.07;;
45114;SDS011;30877;43.706;10.780;2022-07-25T06:55:10;10.98;;;4.88;;
45114;SDS011;30877;43.706;10.780;2022-07-25T06:57:41;8.98;;;5.63;;
45114;SDS011;30877;43.706;10.780;2022-07-25T07:00:10;8.00;;;5.43;;
45114;SDS011;30877;43.706;10.780;2022-07-25T07:02:49;7.47;;;5.10;;
45114;SDS011;30877;43.706;10.780;2022-07-25T07:05:18;9.60;;;5.68;;
45114;SDS011;30877;43.706;10.780;2022-07-25T07:07:47;10.05;;;4.50;;
45114;SDS011;30877;43.706;10.780;2022-07-25T07:10:16;8.52;;;5.55;;
45114;SDS011;30877;43.706;10.780;2022-07-25T07:12:46;10.85;;;5.13;;
45114;SDS011;30877;43.706;10.780;2022-07-25T07:15:16;8.32;;;5.50;;
45114;SDS011;30877;43.706;10.780;2022-07-25T07:17:44;10.00;;;5.18;;
45114;SDS011;30877;43.706;10.780;2022-07-25T07:20:12;7.38;;;5.28;;
45114;SDS011;30877;43.706;10.780;2022-07-25T07:22:43;8.60;;;5.45;;
45114;SDS011;30877;43.706;10.780;2022-07-25T07:25:13;7.97;;;5.72;;
45114;SDS011;30877;43.706;10.780;2022-07-25T07:27:42;8.20;;;5.47;;
45114;SDS011;30877;43.706;10.780;2022-07-25T07:30:12;7.72;;;5.38;;
45114;SDS011;30877;43.706;10.780;2022-07-25T07:32:45;6.95;;;5.55;;
45114;SDS011;30877;43.706;10.780;2022-07-25T07:35:14;10.38;;;6.47;;
45114;SDS011;30877;43.706;10.780;2022-07-25T07:37:42;9.05;;;6.53;;
45114;SDS011;30877;43.706;10.780;2022-07-25T07:40:12;8.38;;;5.68;;
45114;SDS011;30877;43.706;10.780;2022-07-25T07:42:44;7.35;;;6.10;;
45114;SDS011;30877;43.706;10.780;2022-07-25T07:45:16;11.00;;;7.05;;
45114;SDS011;30877;43.706;10.780;2022-07-25T07:47:46;13.30;;;6.20;;
45114;SDS011;30877;43.706;10.780;2022-07-25T07:50:15;8.20;;;5.78;;
45114;SDS011;30877;43.706;10.780;2022-07-25T07:52:44;8.57;;;5.70;;
45114;SDS011;30877;43.706;10.780;2022-07-25T07:55:13;7.13;;;5.72;;
45114;SDS011;30877;43.706;10.780;2022-07-25T07:57:59;7.65;;;5.80;;
45114;SDS011;30877;43.706;10.780;2022-07-25T08:00:31;9.35;;;6.82;;
45114;SDS011;30877;43.706;10.780;2022-07-25T08:03:02;8.13;;;6.13;;
45114;SDS011;30877;43.706;10.780;2022-07-25T08:05:34;7.03;;;5.97;;
45114;SDS011;30877;43.706;10.780;2022-07-25T08:08:05;8.85;;;6.53;;
45114;SDS011;30877;43.706;10.780;2022-07-25T08:10:35;9.80;;;5.93;;
45114;SDS011;30877;43.706;10.780;2022-07-25T08:13:10;6.90;;;6.10;;
45114;SDS011;30877;43.706;10.780;2022-07-25T08:15:43;7.45;;;5.82;;
45114;SDS011;30877;43.706;10.780;2022-07-25T08:18:12;9.18;;;6.20;;
45114;SDS011;30877;43.706;10.780;2022-07-25T08:20:44;7.63;;;5.85;;
45114;SDS011;30877;43.706;10.780;2022-07-25T08:23:12;8.65;;;6.40;;
45114;SDS011;30877;43.706;10.780;2022-07-25T08:25:41;10.18;;;5.93;;
45114;SDS011;30877;43.706;10.780;2022-07-25T08:28:10;10.15;;;6.07;;
45114;SDS011;30877;43.706;10.780;2022-07-25T08:30:38;9.77;;;6.22;;
45114;SDS011;30877;43.706;10.780;2022-07-25T08:33:10;10.95;;;6.55;;
45114;SDS011;30877;43.706;10.780;2022-07-25T08:35:39;8.32;;;6.55;;
45114;SDS011;30877;43.706;10.780;2022-07-25T08:38:11;11.13;;;5.90;;
45114;SDS011;30877;43.706;10.780;2022-07-25T08:40:40;8.80;;;6.40;;
45114;SDS011;30877;43.706;10.780;2022-07-25T08:43:09;8.82;;;6.55;;
45114;SDS011;30877;43.706;10.780;2022-07-25T08:48:11;11.20;;;6.40;;
45114;SDS011;30877;43.706;10.780;2022-07-25T08:50:40;10.80;;;6.70;;
45114;SDS011;30877;43.706;10.780;2022-07-25T08:53:10;10.70;;;7.15;;
45114;SDS011;30877;43.706;10.780;2022-07-25T08:55:59;13.85;;;7.15;;
45114;SDS011;30877;43.706;10.780;2022-07-25T08:58:35;10.57;;;6.97;;
45114;SDS011;30877;43.706;10.780;2022-07-25T09:01:04;11.35;;;6.78;;
45114;SDS011;30877;43.706;10.780;2022-07-25T09:03:34;9.63;;;6.28;;
45114;SDS011;30877;43.706;10.780;2022-07-25T09:06:12;8.00;;;6.57;;
45114;SDS011;30877;43.706;10.780;2022-07-25T09:08:49;8.82;;;7.22;;
45114;SDS011;30877;43.706;10.780;2022-07-25T09:13:57;9.43;;;7.22;;
45114;SDS011;30877;43.706;10.780;2022-07-25T09:16:30;6.97;;;6.38;;
45114;SDS011;30877;43.706;10.780;2022-07-25T09:19:11;10.48;;;6.60;;
45114;SDS011;30877;43.706;10.780;2022-07-25T09:21:41;8.77;;;6.78;;
45114;SDS011;30877;43.706;10.780;2022-07-25T09:24:12;9.30;;;6.75;;
45114;SDS011;30877;43.706;10.780;2022-07-25T09:26:42;10.18;;;7.18;;
45114;SDS011;30877;43.706;10.780;2022-07-25T09:29:15;9.43;;;6.72;;
45114;SDS011;30877;43.706;10.780;2022-07-25T09:34:27;12.45;;;6.97;;
45114;SDS011;30877;43.706;10.780;2022-07-25T09:36:57;9.23;;;6.93;;
45114;SDS011;30877;43.706;10.780;2022-07-25T09:39:33;10.90;;;7.15;;
45114;SDS011;30877;43.706;10.780;2022-07-25T09:42:16;7.65;;;7.00;;
45114;SDS011;30877;43.706;10.780;2022-07-25T09:44:56;9.90;;;7.07;;
45114;SDS011;30877;43.706;10.780;2022-07-25T09:47:30;10.05;;;7.22;;
45114;SDS011;30877;43.706;10.780;2022-07-25T09:50:00;11.35;;;6.85;;
45114;SDS011;30877;43.706;10.780;2022-07-25T09:52:28;8.13;;;6.43;;
45114;SDS011;30877;43.706;10.780;2022-07-25T09:54:57;10.55;;;7.20;;
45114;SDS011;30877;43.706;10.780;2022-07-25T09:57:29;9.95;;;6.65;;
45114;SDS011;30877;43.706;10.780;2022-07-25T09:59:58;7.75;;;6.82;;
45114;SDS011;30877;43.706;10.780;2022-07-25T10:02:30;9.77;;;7.40;;
45114;SDS011;30877;43.706;10.780;2022-07-25T10:05:11;11.38;;;7.75;;
45114;SDS011;30877;43.706;10.780;2022-07-25T10:07:42;9.07;;;6.97;;
45114;SDS011;30877;43.706;10.780;2022-07-25T10:10:26;10.18;;;7.30;;
45114;SDS011;30877;43.706;10.780;2022-07-25T10:13:00;8.48;;;7.57;;
45114;SDS011;30877;43.706;10.780;2022-07-25T10:15:40;11.32;;;7.22;;
45114;SDS011;30877;43.706;10.780;2022-07-25T10:18:13;9.23;;;7.22;;
45114;SDS011;30877;43.706;10.780;2022-07-25T10:20:44;9.68;;;7.32;;
45114;SDS011;30877;43.706;10.780;2022-07-25T10:23:18;9.73;;;6.85;;
45114;SDS011;30877;43.706;10.780;2022-07-25T10:25:58;9.93;;;7.55;;
45114;SDS011;30877;43.706;10.780;2022-07-25T10:28:34;8.63;;;6.78;;
45114;SDS011;30877;43.706;10.780;2022-07-25T10:31:18;10.63;;;8.18;;
45114;SDS011;30877;43.706;10.780;2022-07-25T10:33:49;9.82;;;7.10;;
45114;SDS011;30877;43.706;10.780;2022-07-25T10:36:21;12.93;;;7.05;;
45114;SDS011;30877;43.706;10.780;2022-07-25T10:38:51;8.50;;;7.10;;
45114;SDS011;30877;43.706;10.780;2022-07-25T10:41:24;10.85;;;7.38;;
45114;SDS011;30877;43.706;10.780;2022-07-25T10:43:55;9.63;;;7.40;;
45114;SDS011;30877;43.706;10.780;2022-07-25T10:46:27;11.55;;;7.35;;
45114;SDS011;30877;43.706;10.780;2022-07-25T10:48:57;12.40;;;7.88;;
45114;SDS011;30877;43.706;10.780;2022-07-25T10:51:30;9.35;;;7.63;;
45114;SDS011;30877;43.706;10.780;2022-07-25T10:54:13;10.10;;;7.60;;
45114;SDS011;30877;43.706;10.780;2022-07-25T10:56:50;9.07;;;7.15;;
45114;SDS011;30877;43.706;10.780;2022-07-25T10:59:30;12.13;;;7.55;;
45114;SDS011;30877;43.706;10.780;2022-07-25T11:02:00;8.98;;;7.20;;
45114;SDS011;30877;43.706;10.780;2022-07-25T11:04:30;7.57;;;6.85;;
45114;SDS011;30877;43.706;10.780;2022-07-25T11:07:09;10.60;;;7.40;;
45114;SDS011;30877;43.706;10.780;2022-07-25T11:09:42;10.15;;;7.32;;
45114;SDS011;30877;43.706;10.780;2022-07-25T11:12:23;10.10;;;7.22;;
45114;SDS011;30877;43.706;10.780;2022-07-25T11:14:55;9.75;;;7.30;;
45114;SDS011;30877;43.706;10.780;2022-07-25T11:17:37;9.48;;;7.55;;
45114;SDS011;30877;43.706;10.780;2022-07-25T11:20:16;8.80;;;6.97;;
45114;SDS011;30877;43.706;10.780;2022-07-25T11:22:53;9.00;;;6.90;;
45114;SDS011;30877;43.706;10.780;2022-07-25T11:25:23;12.52;;;7.57;;
45114;SDS011;30877;43.706;10.780;2022-07-25T11:27:54;7.97;;;6.65;;
45114;SDS011;30877;43.706;10.780;2022-07-25T11:30:27;7.47;;;6.65;;
45114;SDS011;30877;43.706;10.780;2022-07-25T11:32:58;11.75;;;6.78;;
45114;SDS011;30877;43.706;10.780;2022-07-25T11:35:30;10.57;;;7.35;;
45114;SDS011;30877;43.706;10.780;2022-07-25T11:38:02;7.95;;;7.10;;
45114;SDS011;30877;43.706;10.780;2022-07-25T11:40:32;7.15;;;5.97;;
45114;SDS011;30877;43.706;10.780;2022-07-25T11:43:17;8.25;;;6.63;;
45114;SDS011;30877;43.706;10.780;2022-07-25T11:45:54;8.05;;;6.13;;
45114;SDS011;30877;43.706;10.780;2022-07-25T11:48:31;8.50;;;6.20;;
45114;SDS011;30877;43.706;10.780;2022-07-25T11:51:12;7.10;;;6.40;;
45114;SDS011;30877;43.706;10.780;2022-07-25T11:53:46;7.95;;;6.50;;
45114;SDS011;30877;43.706;10.780;2022-07-25T11:56:17;8.40;;;6.50;;
45114;SDS011;30877;43.706;10.780;2022-07-25T11:59:06;7.82;;;6.60;;
45114;SDS011;30877;43.706;10.780;2022-07-25T12:01:37;9.85;;;6.75;;
45114;SDS011;30877;43.706;10.780;2022-07-25T12:04:08;9.15;;;6.68;;
45114;SDS011;30877;43.706;10.780;2022-07-25T12:06:39;19.40;;;7.85;;
45114;SDS011;30877;43.706;10.780;2022-07-25T12:09:13;19.10;;;7.95;;
45114;SDS011;30877;43.706;10.780;2022-07-25T12:11:45;13.07;;;6.95;;
45114;SDS011;30877;43.706;10.780;2022-07-25T12:14:14;8.88;;;6.45;;
45114;SDS011;30877;43.706;10.780;2022-07-25T12:16:43;12.77;;;6.57;;
45114;SDS011;30877;43.706;10.780;2022-07-25T12:19:18;6.93;;;6.25;;
45114;SDS011;30877;43.706;10.780;2022-07-25T12:21:47;7.35;;;6.00;;
45114;SDS011;30877;43.706;10.780;2022-07-25T12:24:16;8.88;;;6.45;;
45114;SDS011;30877;43.706;10.780;2022-07-25T12:26:44;11.27;;;6.75;;
45114;SDS011;30877;43.706;10.780;2022-07-25T12:29:13;8.38;;;6.95;;
45114;SDS011;30877;43.706;10.780;2022-07-25T12:31:41;11.48;;;6.80;;
45114;SDS011;30877;43.706;10.780;2022-07-25T12:34:09;9.88;;;6.85;;
45114;SDS011;30877;43.706;10.780;2022-07-25T12:36:38;9.30;;;7.00;;
45114;SDS011;30877;43.706;10.780;2022-07-25T12:39:11;10.23;;;6.90;;
45114;SDS011;30877;43.706;10.780;2022-07-25T12:41:41;11.77;;;7.78;;
45114;SDS011;30877;43.706;10.780;2022-07-25T12:44:09;8.27;;;7.18;;
45114;SDS011;30877;43.706;10.780;2022-07-25T12:46:38;9.30;;;7.25;;
45114;SDS011;30877;43.706;10.780;2022-07-25T12:49:14;13.05;;;7.00;;
45114;SDS011;30877;43.706;10.780;2022-07-25T12:51:43;13.48;;;7.32;;
45114;SDS011;30877;43.706;10.780;2022-07-25T12:54:12;11.10;;;6.45;;
45114;SDS011;30877;43.706;10.780;2022-07-25T12:56:49;8.05;;;6.45;;
45114;SDS011;30877;43.706;10.780;2022-07-25T12:59:18;11.15;;;6.05;;
45114;SDS011;30877;43.706;10.780;2022-07-25T13:01:46;8.38;;;6.72;;
45114;SDS011;30877;43.706;10.780;2022-07-25T13:04:15;8.52;;;6.70;;
45114;SDS011;30877;43.706;10.780;2022-07-25T13:06:43;8.02;;;6.68;;
45114;SDS011;30877;43.706;10.780;2022-07-25T13:09:12;10.23;;;6.40;;
45114;SDS011;30877;43.706;10.780;2022-07-25T13:11:41;10.52;;;6.22;;
45114;SDS011;30877;43.706;10.780;2022-07-25T13:14:11;13.70;;;6.53;;
45114;SDS011;30877;43.706;10.780;2022-07-25T13:16:39;9.02;;;6.43;;
45114;SDS011;30877;43.706;10.780;2022-07-25T13:19:08;6.72;;;5.93;;
45114;SDS011;30877;43.706;10.780;2022-07-25T13:21:37;10.95;;;6.68;;
45114;SDS011;30877;43.706;10.780;2022-07-25T13:24:05;7.20;;;5.82;;
45114;SDS011;30877;43.706;10.780;2022-07-25T13:26:34;10.13;;;5.88;;
45114;SDS011;30877;43.706;10.780;2022-07-25T13:29:03;7.63;;;6.32;;
45114;SDS011;30877;43.706;10.780;2022-07-25T13:31:40;7.90;;;6.03;;
45114;SDS011;30877;43.706;10.780;2022-07-25T13:34:09;11.10;;;6.85;;
45114;SDS011;30877;43.706;10.780;2022-07-25T13:36:37;8.18;;;6.50;;
45114;SDS011;30877;43.706;10.780;2022-07-25T13:39:06;9.05;;;7.28;;
45114;SDS011;30877;43.706;10.780;2022-07-25T13:41:35;8.25;;;5.90;;
45114;SDS011;30877;43.706;10.780;2022-07-25T13:44:04;9.65;;;6.25;;
45114;SDS011;30877;43.706;10.780;2022-07-25T13:46:43;10.00;;;6.95;;
45114;SDS011;30877;43.706;10.780;2022-07-25T13:49:16;9.20;;;5.72;;
45114;SDS011;30877;43.706;10.780;2022-07-25T13:51:44;8.93;;;6.50;;
45114;SDS011;30877;43.706;10.780;2022-07-25T13:54:16;10.15;;;6.93;;
45114;SDS011;30877;43.706;10.780;2022-07-25T13:56:53;7.38;;;6.07;;
45114;SDS011;30877;43.706;10.780;2022-07-25T13:59:21;8.30;;;7.07;;
45114;SDS011;30877;43.706;10.780;2022-07-25T14:02:17;6.38;;;5.57;;
45114;SDS011;30877;43.706;10.780;2022-07-25T14:04:45;6.20;;;5.63;;
45114;SDS011;30877;43.706;10.780;2022-07-25T14:07:14;7.57;;;6.72;;
45114;SDS011;30877;43.706;10.780;2022-07-25T14:09:44;7.10;;;6.18;;
45114;SDS011;30877;43.706;10.780;2022-07-25T14:12:13;7.35;;;6.55;;
45114;SDS011;30877;43.706;10.780;2022-07-25T14:14:44;6.60;;;6.00;;
45114;SDS011;30877;43.706;10.780;2022-07-25T14:17:13;6.93;;;6.18;;
45114;SDS011;30877;43.706;10.780;2022-07-25T14:19:45;10.05;;;6.72;;
45114;SDS011;30877;43.706;10.780;2022-07-25T14:22:13;7.57;;;6.78;;
45114;SDS011;30877;43.706;10.780;2022-07-25T14:24:41;7.60;;;6.07;;
45114;SDS011;30877;43.706;10.780;2022-07-25T14:27:10;9.27;;;6.57;;
45114;SDS011;30877;43.706;10.780;2022-07-25T14:29:38;6.85;;;6.10;;
45114;SDS011;30877;43.706;10.780;2022-07-25T14:32:06;7.13;;;6.22;;
45114;SDS011;30877;43.706;10.780;2022-07-25T14:34:34;7.70;;;5.95;;
45114;SDS011;30877;43.706;10.780;2022-07-25T14:37:07;8.07;;;6.22;;
45114;SDS011;30877;43.706;10.780;2022-07-25T14:39:35;7.10;;;6.40;;
45114;SDS011;30877;43.706;10.780;2022-07-25T14:42:03;6.72;;;6.07;;
45114;SDS011;30877;43.706;10.780;2022-07-25T14:44:31;8.32;;;6.60;;
45114;SDS011;30877;43.706;10.780;2022-07-25T14:47:03;12.52;;;6.57;;
45114;SDS011;30877;43.706;10.780;2022-07-25T14:49:38;6.87;;;5.33;;
45114;SDS011;30877;43.706;10.780;2022-07-25T14:52:08;6.68;;;5.97;;
45114;SDS011;30877;43.706;10.780;2022-07-25T14:54:38;12.85;;;6.05;;
45114;SDS011;30877;43.706;10.780;2022-07-25T14:57:06;8.57;;;6.13;;